Time;durP1;ratioP1;P1;durP2;ratioP2;P2;SDS_P1;SDS_P2;PMS_P1;PMS_P2;Temp;Humidity;BMP_temperature;BMP_pressure;BME280_temperature;BME280_humidity;BME280_pressure;Samples;Min_cycle;Max_cycle;Signal;HPM_P1;HPM_P2
2023/01/30 00:00:33;;;;;;;;;40.50;37.25;;;;;9.09;100.00;102457.78;5012706;28;47971;-79
2023/01/30 00:02:59;;;;;;;;;37.00;33.00;;;;;9.01;100.00;102432.13;5013987;28;45466;-79
2023/01/30 00:05:24;;;;;;;;;41.00;36.75;;;;;9.32;100.00;102459.91;5036497;28;45375;-79
2023/01/30 00:07:49;;;;;;;;;42.00;37.25;;;;;9.20;100.00;102457.13;5034073;28;45540;-80
2023/01/30 00:10:15;;;;;;;;;40.25;34.00;;;;;9.21;100.00;102462.41;5020093;28;45498;-80
2023/01/30 00:12:41;;;;;;;;;46.25;38.25;;;;;9.34;100.00;102457.97;5021830;28;45395;-80
2023/01/30 00:15:07;;;;;;;;;38.50;32.00;;;;;9.47;100.00;102458.03;5037013;28;45555;-79
2023/01/30 00:17:32;;;;;;;;;49.50;38.50;;;;;9.57;100.00;102458.31;5018105;28;45393;-80
2023/01/30 00:19:57;;;;;;;;;38.75;29.50;;;;;9.60;100.00;102437.25;5022182;28;47917;-80
2023/01/30 00:22:23;;;;;;;;;42.75;37.25;;;;;9.67;100.00;102438.59;5019549;28;45389;-80
2023/01/30 00:24:48;;;;;;;;;40.25;38.75;;;;;9.59;100.00;102419.25;5017080;28;45414;-79
2023/01/30 00:27:13;;;;;;;;;29.50;29.50;;;;;9.65;100.00;102423.38;5015053;28;45386;-80
2023/01/30 00:29:39;;;;;;;;;47.25;37.75;;;;;9.70;100.00;102405.84;5018697;28;45510;-79
2023/01/30 00:32:04;;;;;;;;;39.50;37.25;;;;;9.73;100.00;102421.91;5021310;28;45268;-80
2023/01/30 00:34:30;;;;;;;;;47.75;37.75;;;;;9.71;100.00;102412.16;5016350;28;45297;-80
2023/01/30 00:36:55;;;;;;;;;44.75;35.25;;;;;9.76;100.00;102419.00;5025279;28;45505;-79
2023/01/30 00:39:21;;;;;;;;;54.50;39.75;;;;;9.73;100.00;102416.47;5017840;28;48128;-80
2023/01/30 00:47:14;;;;;;;;;34.00;32.50;;;;;9.65;100.00;102391.69;5013897;28;45299;-80
2023/01/30 00:49:41;;;;;;;;;33.75;30.75;;;;;9.57;100.00;102369.63;5010035;28;45398;-80
2023/01/30 00:52:06;;;;;;;;;38.75;30.50;;;;;9.89;100.00;102388.31;5007774;28;45303;-80
2023/01/30 00:54:32;;;;;;;;;34.75;34.75;;;;;9.82;100.00;102378.84;5008100;28;45548;-79
2023/01/30 00:56:57;;;;;;;;;33.00;28.75;;;;;9.85;100.00;102370.50;5017368;28;45457;-79
2023/01/30 00:59:22;;;;;;;;;35.25;30.50;;;;;9.92;100.00;102367.25;5012611;28;48213;-79
2023/01/30 01:01:48;;;;;;;;;34.50;30.75;;;;;9.99;100.00;102374.00;5017780;28;45321;-79
2023/01/30 01:04:13;;;;;;;;;37.25;31.00;;;;;9.87;100.00;102366.69;5019874;28;45354;-79
2023/01/30 01:06:39;;;;;;;;;38.00;32.25;;;;;9.83;100.00;102362.44;5033580;28;45569;-80
2023/01/30 01:09:05;;;;;;;;;41.50;35.25;;;;;9.81;100.00;102358.09;5011755;28;47170;-79
2023/01/30 01:11:31;;;;;;;;;45.25;33.50;;;;;9.80;100.00;102350.91;5021614;28;45449;-80
2023/01/30 01:13:59;;;;;;;;;34.75;30.00;;;;;9.76;100.00;102355.69;5013298;28;45462;-80
2023/01/30 01:16:26;;;;;;;;;35.25;31.75;;;;;9.73;100.00;102351.34;5036995;28;45471;-80
2023/01/30 01:18:52;;;;;;;;;41.25;30.00;;;;;9.86;100.00;102362.25;5011344;28;47219;-79
2023/01/30 01:21:19;;;;;;;;;40.25;31.75;;;;;9.85;100.00;102344.22;5017522;28;45343;-80
2023/01/30 01:23:50;;;;;;;;;44.75;34.25;;;;;9.92;100.00;102350.09;5019616;28;45453;-79
2023/01/30 01:26:16;;;;;;;;;30.25;28.00;;;;;9.88;100.00;102338.56;5016322;28;45371;-79
2023/01/30 01:28:41;;;;;;;;;34.75;30.75;;;;;9.73;100.00;102335.06;5008993;28;46708;-80
2023/01/30 01:31:08;;;;;;;;;35.75;30.00;;;;;9.89;100.00;102337.59;5032025;28;45458;-80
2023/01/30 01:33:34;;;;;;;;;35.00;34.50;;;;;9.87;100.00;102331.38;5012328;28;45328;-80
2023/01/30 01:35:59;;;;;;;;;40.00;33.25;;;;;9.96;100.00;102336.19;5020341;28;44826;-80
2023/01/30 01:38:24;;;;;;;;;32.00;30.75;;;;;9.91;100.00;102340.22;5020803;28;46816;-80
2023/01/30 01:41:02;;;;;;;;;32.00;27.75;;;;;9.84;100.00;102339.75;5033488;28;45387;-79
2023/01/30 01:43:34;;;;;;;;;37.50;28.25;;;;;9.70;100.00;102329.84;5023033;28;45582;-79
2023/01/30 01:46:03;;;;;;;;;46.75;36.75;;;;;9.72;100.00;102321.56;5017612;28;45335;-80
2023/01/30 01:48:35;;;;;;;;;34.75;29.50;;;;;9.77;100.00;102319.44;5032031;28;47309;-80
2023/01/30 01:51:04;;;;;;;;;32.25;30.00;;;;;9.73;100.00;102328.75;5018288;28;45425;-80
2023/01/30 01:53:35;;;;;;;;;35.00;29.25;;;;;9.77;100.00;102327.59;5018111;28;45239;-79
2023/01/30 01:56:02;;;;;;;;;36.25;30.00;;;;;9.85;100.00;102333.38;5030507;28;45398;-79
2023/01/30 01:58:36;;;;;;;;;30.00;30.00;;;;;9.87;100.00;102323.25;5020779;28;46521;-80
2023/01/30 02:01:02;;;;;;;;;25.25;24.75;;;;;9.95;100.00;102317.28;5027432;28;45450;-80
2023/01/30 02:03:31;;;;;;;;;33.50;30.25;;;;;9.89;100.00;102324.03;5017510;28;45654;-80
2023/01/30 02:06:01;;;;;;;;;39.00;29.75;;;;;9.87;100.00;102315.09;5015125;28;45592;-79
2023/01/30 02:08:38;;;;;;;;;39.75;33.00;;;;;9.86;100.00;102307.09;5014605;28;45407;-79
2023/01/30 02:11:10;;;;;;;;;34.25;29.50;;;;;9.76;100.00;102318.56;5019834;28;45700;-79
2023/01/30 02:13:35;;;;;;;;;29.75;24.25;;;;;9.79;100.00;102314.75;5014845;28;45383;-80
2023/01/30 02:16:03;;;;;;;;;31.00;27.00;;;;;9.79;100.00;102328.31;5018673;28;45437;-80
2023/01/30 02:18:31;;;;;;;;;41.75;36.00;;;;;9.69;100.00;102300.09;5011253;28;46651;-80
2023/01/30 02:21:03;;;;;;;;;27.75;22.75;;;;;10.00;100.00;102318.72;5014547;28;45517;-80
2023/01/30 02:23:56;;;;;;;;;29.75;27.75;;;;;9.85;100.00;102311.66;5008900;28;45524;-79
2023/01/30 02:26:55;;;;;;;;;38.50;28.75;;;;;9.98;100.00;102311.66;5017861;28;45414;-79
2023/01/30 02:29:39;;;;;;;;;32.50;28.75;;;;;10.05;100.00;102323.81;5018180;28;45893;-79
2023/01/30 02:32:22;;;;;;;;;40.50;31.25;;;;;9.97;100.00;102327.06;5021922;28;45353;-80
2023/01/30 02:35:20;;;;;;;;;35.50;29.50;;;;;9.85;100.00;102311.66;5017099;28;45400;-79
2023/01/30 02:38:10;;;;;;;;;39.25;30.25;;;;;9.88;100.00;102316.84;5021723;28;45493;-79
2023/01/30 02:40:56;;;;;;;;;30.00;27.75;;;;;9.78;100.00;102310.31;5017449;28;46988;-80
2023/01/30 02:43:28;;;;;;;;;27.50;25.50;;;;;9.66;100.00;102316.56;5021118;28;46134;-80
2023/01/30 02:46:00;;;;;;;;;33.00;25.75;;;;;9.80;100.00;102311.06;5016666;28;45243;-80
2023/01/30 02:48:36;;;;;;;;;37.00;33.75;;;;;9.85;100.00;102321.63;5020485;28;45213;-80
2023/01/30 02:51:06;;;;;;;;;26.00;21.00;;;;;9.54;100.00;102302.00;5018756;28;46511;-79
2023/01/30 02:53:32;;;;;;;;;34.00;30.25;;;;;9.46;100.00;102308.91;5021083;28;46227;-79
2023/01/30 02:55:58;;;;;;;;;32.50;30.75;;;;;9.43;100.00;102336.25;5018026;28;45513;-80
2023/01/30 02:58:33;;;;;;;;;31.75;26.25;;;;;9.36;100.00;102309.53;5021678;28;45324;-79
2023/01/30 03:01:04;;;;;;;;;27.00;21.00;;;;;9.27;100.00;102314.72;5021745;28;46391;-80
2023/01/30 03:03:44;;;;;;;;;28.00;25.75;;;;;9.52;100.00;102327.50;5020620;28;45497;-80
2023/01/30 03:06:22;;;;;;;;;20.25;17.50;;;;;9.41;100.00;102320.09;5024292;28;45176;-80
2023/01/30 03:08:54;;;;;;;;;26.25;21.75;;;;;9.46;100.00;102312.50;5020231;28;45351;-79
2023/01/30 03:11:27;;;;;;;;;19.50;15.50;;;;;9.49;100.00;102308.72;5022295;28;46371;-79
2023/01/30 03:13:55;;;;;;;;;32.75;25.75;;;;;9.32;100.00;102323.41;5032928;28;45358;-79
2023/01/30 03:16:40;;;;;;;;;35.75;25.00;;;;;9.28;100.00;102311.88;5038670;28;45243;-79
2023/01/30 03:19:11;;;;;;;;;27.75;25.25;;;;;9.43;100.00;102319.97;5021133;28;45236;-79
2023/01/30 03:21:43;;;;;;;;;22.75;22.00;;;;;9.50;100.00;102326.72;5015945;28;47136;-79
2023/01/30 03:24:10;;;;;;;;;33.50;29.50;;;;;9.61;100.00;102322.31;5021623;28;45342;-79
2023/01/30 03:26:43;;;;;;;;;29.75;29.50;;;;;9.37;100.00;102299.56;5017089;28;45455;-80
2023/01/30 03:29:09;;;;;;;;;34.25;30.75;;;;;9.25;100.00;102325.66;5019823;28;45628;-80
2023/01/30 03:31:34;;;;;;;;;35.50;26.00;;;;;9.33;100.00;102307.03;5031892;28;47960;-79
2023/01/30 03:33:59;;;;;;;;;29.25;22.00;;;;;9.36;100.00;102312.25;5017025;28;45357;-79
2023/01/30 03:36:25;;;;;;;;;37.25;28.75;;;;;9.57;100.00;102311.78;5031046;28;45578;-79
2023/01/30 03:38:51;;;;;;;;;36.50;29.00;;;;;9.49;100.00;102317.75;5017776;28;45636;-78
2023/01/30 03:41:16;;;;;;;;;32.25;29.50;;;;;9.46;100.00;102317.06;5017839;28;45461;-79
2023/01/30 03:43:42;;;;;;;;;32.25;23.25;;;;;9.53;100.00;102318.38;5019915;28;45487;-78
2023/01/30 03:46:07;;;;;;;;;23.75;22.00;;;;;9.50;100.00;102296.88;5036785;28;45326;-79
2023/01/30 03:48:32;;;;;;;;;29.25;25.25;;;;;9.75;100.00;102300.53;5018357;28;45323;-79
2023/01/30 03:50:58;;;;;;;;;25.25;23.50;;;;;9.76;100.00;102298.69;5020156;28;45441;-78
2023/01/30 03:53:23;;;;;;;;;31.00;23.75;;;;;9.75;100.00;102294.25;5015648;28;45319;-79
2023/01/30 03:55:49;;;;;;;;;32.75;26.50;;;;;9.50;100.00;102299.59;5032202;28;45395;-79
2023/01/30 03:58:14;;;;;;;;;26.00;23.75;;;;;9.59;100.00;102299.84;5021000;28;45613;-79
2023/01/30 04:00:39;;;;;;;;;31.00;27.50;;;;;9.62;100.00;102294.22;5016569;28;46715;-79
2023/01/30 04:03:06;;;;;;;;;35.75;27.00;;;;;9.57;100.00;102271.94;5015574;28;45474;-79
2023/01/30 04:05:31;;;;;;;;;31.50;24.50;;;;;9.82;100.00;102306.41;5017469;28;46119;-80
2023/01/30 04:07:57;;;;;;;;;38.50;31.00;;;;;9.75;100.00;102288.81;5038953;28;45204;-79
2023/01/30 04:10:24;;;;;;;;;30.50;24.75;;;;;9.88;100.00;102286.09;5020168;28;45658;-79
2023/01/30 04:12:49;;;;;;;;;30.00;26.00;;;;;9.89;100.00;102286.00;5017153;28;45245;-79
2023/01/30 04:15:14;;;;;;;;;13.25;8.00;;;;;9.94;100.00;102281.13;5018514;28;45423;-79
2023/01/30 04:17:42;;;;;;;;;38.00;29.25;;;;;9.67;100.00;102270.34;5021978;28;45409;-79
2023/01/30 04:20:08;;;;;;;;;23.75;23.75;;;;;9.78;100.00;102283.19;5014588;28;45449;-79
2023/01/30 04:22:33;;;;;;;;;20.00;17.00;;;;;9.84;100.00;102281.88;5017465;28;45384;-80
2023/01/30 04:24:59;;;;;;;;;28.75;26.00;;;;;10.01;100.00;102281.56;5014847;28;45429;-80
2023/01/30 04:27:24;;;;;;;;;40.00;35.50;;;;;9.66;100.00;102252.31;5020812;28;45335;-80
2023/01/30 04:29:49;;;;;;;;;25.25;20.75;;;;;9.71;100.00;102281.88;5013359;28;46828;-81
2023/01/30 04:32:15;;;;;;;;;29.50;27.50;;;;;9.68;100.00;102244.06;5016497;28;45352;-79
2023/01/30 04:34:42;;;;;;;;;32.50;27.25;;;;;9.79;100.00;102268.59;5014840;28;45268;-79
2023/01/30 04:37:08;;;;;;;;;29.50;29.00;;;;;9.70;100.00;102256.56;5015851;28;45371;-79
2023/01/30 04:39:33;;;;;;;;;43.75;31.75;;;;;9.70;100.00;102277.41;5027233;28;48271;-79
2023/01/30 04:41:58;;;;;;;;;28.00;23.00;;;;;9.60;100.00;102273.56;5022580;28;45255;-79
2023/01/30 04:44:24;;;;;;;;;35.75;30.50;;;;;9.44;100.00;102264.75;5019141;28;45431;-79
2023/01/30 04:46:49;;;;;;;;;31.75;29.25;;;;;9.58;100.00;102248.38;5015163;28;45255;-79
2023/01/30 04:49:14;;;;;;;;;31.00;26.75;;;;;9.84;100.00;102271.91;5012438;28;45443;-79
2023/01/30 04:51:40;;;;;;;;;25.25;22.25;;;;;9.98;100.00;102271.81;5019196;28;45446;-79
2023/01/30 04:54:05;;;;;;;;;33.25;27.50;;;;;10.11;100.00;102278.09;5018860;28;45334;-79
2023/01/30 04:56:31;;;;;;;;;35.75;26.00;;;;;10.10;100.00;102267.34;5017026;28;45444;-80
2023/01/30 04:58:56;;;;;;;;;31.25;30.50;;;;;9.96;100.00;102262.88;5013017;28;45886;-80
2023/01/30 05:01:30;;;;;;;;;34.25;29.50;;;;;10.08;100.00;102264.72;5020734;28;45314;-80
2023/01/30 05:03:55;;;;;;;;;40.50;29.25;;;;;9.99;100.00;102284.41;5011509;28;45546;-79
2023/01/30 05:06:21;;;;;;;;;28.25;25.00;;;;;10.10;100.00;102284.50;5021375;28;45425;-80
2023/01/30 05:08:48;;;;;;;;;28.75;26.75;;;;;10.13;100.00;102278.00;5012714;28;47338;-81
2023/01/30 05:11:14;;;;;;;;;33.75;30.75;;;;;10.14;100.00;102269.75;5015970;28;45577;-80
2023/01/30 05:13:39;;;;;;;;;23.00;19.25;;;;;10.04;100.00;102251.47;5031075;28;45525;-79
2023/01/30 05:16:05;;;;;;;;;30.00;28.50;;;;;10.11;100.00;102272.66;5035122;28;45543;-79
2023/01/30 05:18:30;;;;;;;;;31.00;26.75;;;;;10.08;100.00;102278.31;5036480;28;48192;-80
2023/01/30 05:21:08;;;;;;;;;32.00;26.00;;;;;10.20;100.00;102267.59;5018821;28;45327;-82
2023/01/30 05:23:33;;;;;;;;;31.00;26.00;;;;;10.16;100.00;102269.63;5019236;28;45501;-80
2023/01/30 05:25:59;;;;;;;;;28.00;26.25;;;;;10.06;100.00;102258.56;5030642;28;45355;-79
2023/01/30 05:28:25;;;;;;;;;36.75;26.75;;;;;9.77;100.00;102221.72;5020310;28;46336;-81
2023/01/30 05:30:51;;;;;;;;;29.25;26.75;;;;;9.60;100.00;102262.72;5032716;28;45512;-79
2023/01/30 05:33:16;;;;;;;;;37.25;26.25;;;;;9.66;100.00;102273.16;5020849;28;45488;-80
2023/01/30 05:35:49;;;;;;;;;29.50;25.75;;;;;9.83;100.00;102240.28;5036383;28;45716;-79
2023/01/30 05:38:15;;;;;;;;;27.25;24.00;;;;;9.97;100.00;102256.47;5026402;28;46305;-80
2023/01/30 05:40:40;;;;;;;;;32.25;28.25;;;;;10.00;100.00;102256.28;5018627;28;45496;-81
2023/01/30 05:43:05;;;;;;;;;30.75;26.50;;;;;9.86;100.00;102244.66;5019773;28;45386;-80
2023/01/30 05:45:32;;;;;;;;;25.25;22.25;;;;;10.06;100.00;102258.56;5013437;28;45485;-81
2023/01/30 05:47:57;;;;;;;;;30.25;26.00;;;;;10.24;100.00;102247.38;5034786;28;48294;-80
2023/01/30 05:50:22;;;;;;;;;31.75;24.75;;;;;10.21;100.00;102221.31;5015680;28;45522;-80
2023/01/30 05:52:49;;;;;;;;;30.75;25.75;;;;;10.16;100.00;102239.75;5015110;28;45242;-79
2023/01/30 05:55:14;;;;;;;;;32.00;29.00;;;;;10.14;100.00;102226.28;5014199;28;45265;-81
2023/01/30 05:57:39;;;;;;;;;34.50;25.25;;;;;10.31;100.00;102243.25;5017445;28;46478;-80
2023/01/30 06:00:06;;;;;;;;;30.25;27.25;;;;;10.40;100.00;102231.72;5016168;28;46101;-81
2023/01/30 06:02:31;;;;;;;;;37.50;31.00;;;;;10.41;100.00;102222.59;5020310;28;45299;-79
2023/01/30 06:04:57;;;;;;;;;32.25;25.00;;;;;10.48;100.00;102232.03;5020394;28;45642;-80
2023/01/30 06:07:22;;;;;;;;;35.00;28.75;;;;;10.49;100.00;102225.63;5021302;28;45192;-81
2023/01/30 06:09:47;;;;;;;;;31.00;26.50;;;;;10.46;100.00;102225.84;5034957;28;45561;-76
2023/01/30 06:12:13;;;;;;;;;31.00;27.00;;;;;10.32;100.00;102226.84;5014515;28;45347;-76
2023/01/30 06:14:38;;;;;;;;;30.75;25.00;;;;;10.39;100.00;102229.97;5015744;28;45441;-77
2023/01/30 06:17:03;;;;;;;;;26.25;20.25;;;;;10.45;100.00;102230.41;5014095;28;46391;-77
2023/01/30 06:19:29;;;;;;;;;24.25;23.25;;;;;10.40;100.00;102220.84;5016322;28;45196;-76
2023/01/30 06:21:54;;;;;;;;;26.67;23.00;;;;;10.45;100.00;102234.97;5020680;28;45225;-77
2023/01/30 06:24:20;;;;;;;;;32.50;27.50;;;;;10.18;100.00;102242.38;5015162;28;45336;-77
2023/01/30 06:26:45;;;;;;;;;34.75;28.25;;;;;10.13;100.00;102238.13;5010792;28;46392;-77
2023/01/30 06:29:10;;;;;;;;;20.50;20.50;;;;;9.97;100.00;102255.63;5031180;28;45543;-77
2023/01/30 06:31:36;;;;;;;;;25.50;24.50;;;;;10.10;100.00;102261.91;5020225;28;45462;-77
2023/01/30 06:34:01;;;;;;;;;31.50;26.75;;;;;10.02;100.00;102243.44;5016154;28;45466;-79
2023/01/30 06:36:26;;;;;;;;;22.00;20.00;;;;;9.77;100.00;102251.59;5015443;28;45830;-77
2023/01/30 06:38:52;;;;;;;;;28.75;22.50;;;;;10.01;100.00;102270.69;5016612;28;45412;-77
2023/01/30 06:41:17;;;;;;;;;17.75;14.25;;;;;10.07;100.00;102262.16;5014748;28;45314;-80
2023/01/30 06:43:43;;;;;;;;;28.25;24.00;;;;;10.24;100.00;102258.25;5034702;28;45319;-81
2023/01/30 06:46:08;;;;;;;;;24.00;21.75;;;;;10.22;100.00;102246.63;5027683;28;46358;-77
2023/01/30 06:48:34;;;;;;;;;30.25;23.50;;;;;10.37;100.00;102272.72;5001085;28;45304;-77
2023/01/30 06:50:59;;;;;;;;;22.25;20.25;;;;;10.31;100.00;102271.28;5012608;28;45329;-77
2023/01/30 06:53:29;;;;;;;;;27.50;21.75;;;;;10.13;100.00;102265.28;5018818;28;45243;-77
2023/01/30 06:55:56;;;;;;;;;28.25;24.00;;;;;10.42;100.00;102284.09;5028249;28;47304;-77
2023/01/30 06:58:21;;;;;;;;;34.25;26.00;;;;;10.39;100.00;102285.19;5021831;28;45524;-77
2023/01/30 07:00:46;;;;;;;;;23.00;19.67;;;;;10.22;100.00;102277.38;5019484;28;45416;-78
2023/01/30 07:03:13;;;;;;;;;26.67;25.00;;;;;10.14;100.00;102274.31;5035259;28;45469;-78
2023/01/30 07:05:40;;;;;;;;;19.50;18.50;;;;;10.26;100.00;102295.19;5027714;28;47324;-77
2023/01/30 07:08:06;;;;;;;;;29.25;25.75;;;;;10.15;100.00;102284.19;5011615;28;45193;-78
2023/01/30 07:10:31;;;;;;;;;24.00;20.00;;;;;10.14;100.00;102299.63;5013243;28;45174;-76
2023/01/30 07:12:58;;;;;;;;;26.50;21.50;;;;;10.26;100.00;102299.75;5020542;28;45565;-76
2023/01/30 07:15:23;;;;;;;;;23.50;19.75;;;;;10.27;100.00;102307.81;5016650;28;46483;-78
2023/01/30 07:17:48;;;;;;;;;22.50;22.25;;;;;10.28;100.00;102297.81;5013654;28;45343;-77
2023/01/30 07:20:14;;;;;;;;;25.00;23.00;;;;;10.38;100.00;102298.88;5014303;28;45292;-78
2023/01/30 07:22:40;;;;;;;;;34.50;25.50;;;;;10.48;100.00;102313.56;5018306;28;45247;-78
2023/01/30 07:25:05;;;;;;;;;24.00;19.25;;;;;10.36;100.00;102280.00;5016846;28;46218;-77
2023/01/30 07:27:31;;;;;;;;;26.75;22.00;;;;;10.45;100.00;102297.44;5016740;28;45433;-77
2023/01/30 07:29:57;;;;;;;;;25.75;22.75;;;;;10.47;100.00;102309.09;5015414;28;45462;-79
2023/01/30 07:32:22;;;;;;;;;31.25;27.50;;;;;10.36;100.00;102322.59;5011513;28;45592;-76
2023/01/30 07:34:48;;;;;;;;;22.75;21.25;;;;;10.10;100.00;102306.22;5014584;28;45412;-77
2023/01/30 07:37:13;;;;;;;;;28.00;24.00;;;;;10.22;100.00;102307.28;5010519;28;45464;-77
2023/01/30 07:39:39;;;;;;;;;30.50;22.75;;;;;10.24;100.00;102321.59;5013277;28;45398;-77
2023/01/30 07:42:04;;;;;;;;;31.50;26.25;;;;;10.17;100.00;102312.13;5008587;28;45387;-76
2023/01/30 07:44:30;;;;;;;;;31.25;21.50;;;;;9.97;100.00;102305.34;5016154;28;47052;-79
2023/01/30 07:46:55;;;;;;;;;23.50;22.00;;;;;10.26;100.00;102305.19;5015821;28;45278;-78
2023/01/30 07:49:21;;;;;;;;;22.50;20.00;;;;;10.29;100.00;102299.56;5016687;28;45231;-76
2023/01/30 07:51:46;;;;;;;;;31.25;24.50;;;;;10.34;100.00;102298.25;5024364;28;45227;-76
2023/01/30 07:54:11;;;;;;;;;25.75;21.00;;;;;10.33;100.00;102301.06;5008885;28;47750;-77
2023/01/30 07:56:37;;;;;;;;;29.25;27.25;;;;;10.56;100.00;102324.75;5016405;28;45371;-80
2023/01/30 07:59:04;;;;;;;;;31.75;29.00;;;;;10.37;100.00;102302.59;5019260;28;45473;-76
2023/01/30 08:01:30;;;;;;;;;27.75;26.75;;;;;10.38;100.00;102304.31;5019491;28;45397;-77
2023/01/30 08:03:55;;;;;;;;;31.50;26.00;;;;;10.22;100.00;102320.84;5018071;28;46573;-77
2023/01/30 08:06:21;;;;;;;;;25.50;25.50;;;;;10.43;100.00;102310.31;5018209;28;45359;-75
2023/01/30 08:08:47;;;;;;;;;31.25;25.25;;;;;10.21;100.00;102274.78;5020301;28;45367;-78
2023/01/30 08:11:12;;;;;;;;;23.50;17.50;;;;;10.50;100.00;102308.88;5016619;28;45368;-75
2023/01/30 08:13:38;;;;;;;;;18.00;16.00;;;;;10.43;100.00;102313.03;5026917;28;45431;-77
2023/01/30 08:16:05;;;;;;;;;29.25;27.25;;;;;10.42;100.00;102316.72;5016711;28;45293;-78
2023/01/30 08:18:33;;;;;;;;;22.25;22.25;;;;;10.45;100.00;102321.91;5020185;28;45431;-76
2023/01/30 08:21:00;;;;;;;;;27.00;23.25;;;;;10.59;100.00;102313.66;5016770;28;45483;-76
2023/01/30 08:23:26;;;;;;;;;22.67;22.67;;;;;10.49;100.00;102307.16;5010202;28;45455;-76
2023/01/30 08:25:59;;;;;;;;;36.00;27.50;;;;;10.46;100.00;102313.66;5012651;28;45398;-78
2023/01/30 08:28:26;;;;;;;;;27.67;23.67;;;;;10.45;100.00;102319.19;5009759;28;45565;-76
2023/01/30 08:30:53;;;;;;;;;27.25;24.00;;;;;10.58;100.00;102317.34;5016771;28;45292;-78
2023/01/30 08:33:19;;;;;;;;;36.25;26.50;;;;;10.52;100.00;102326.78;5019726;28;46290;-79
2023/01/30 08:35:44;;;;;;;;;38.25;30.50;;;;;10.43;100.00;102313.03;5016793;28;45335;-77
2023/01/30 08:38:10;;;;;;;;;27.00;23.00;;;;;10.54;100.00;102323.97;5035939;28;45418;-77
2023/01/30 08:40:36;;;;;;;;;29.67;27.00;;;;;10.24;100.00;102339.72;5018285;28;45374;-77
2023/01/30 08:43:02;;;;;;;;;18.25;13.00;;;;;10.27;100.00;102340.41;5021370;28;45701;-77
2023/01/30 08:45:28;;;;;;;;;22.00;22.00;;;;;10.16;100.00;102329.38;5019046;28;45260;-74
2023/01/30 08:47:57;;;;;;;;;24.25;22.25;;;;;10.13;100.00;102338.63;5021199;28;45425;-76
2023/01/30 08:50:23;;;;;;;;;22.25;21.50;;;;;10.30;100.00;102326.59;5016935;28;45501;-76
2023/01/30 08:52:48;;;;;;;;;37.75;29.50;;;;;10.39;100.00;102341.38;5018723;28;45371;-77
2023/01/30 08:55:13;;;;;;;;;22.67;18.67;;;;;10.42;100.00;102322.16;5019215;28;45475;-75
2023/01/30 08:57:39;;;;;;;;;26.25;20.75;;;;;10.15;100.00;102354.81;5021323;28;45459;-78
2023/01/30 09:00:05;;;;;;;;;23.00;21.25;;;;;10.11;100.00;102351.44;5019660;28;45375;-77
2023/01/30 09:02:31;;;;;;;;;32.25;26.75;;;;;10.16;100.00;102354.69;5035803;28;45502;-76
2023/01/30 09:04:56;;;;;;;;;30.75;22.50;;;;;10.40;100.00;102362.13;5016394;28;45323;-78
2023/01/30 09:07:22;;;;;;;;;22.50;19.50;;;;;9.96;100.00;102357.91;5019207;28;45493;-76
2023/01/30 09:09:47;;;;;;;;;31.00;25.75;;;;;10.39;100.00;102371.25;5012965;28;45604;-76
2023/01/30 09:12:13;;;;;;;;;27.75;23.25;;;;;10.68;100.00;102361.91;5016145;28;46378;-77
2023/01/30 09:14:38;;;;;;;;;25.25;22.00;;;;;10.77;100.00;102358.53;5012251;28;45392;-76
2023/01/30 09:17:04;;;;;;;;;22.67;22.00;;;;;10.60;100.00;102344.41;5015294;28;45173;-76
2023/01/30 09:19:29;;;;;;;;;24.00;21.33;;;;;10.59;100.00;102350.84;5015904;28;45444;-76
2023/01/30 09:21:55;;;;;;;;;26.33;23.33;;;;;10.48;100.00;102366.06;5012979;28;46859;-78
2023/01/30 09:24:25;;;;;;;;;27.00;25.67;;;;;10.57;100.00;102353.66;5013152;28;45647;-77
2023/01/30 09:26:52;;;;;;;;;27.00;23.33;;;;;10.84;100.00;102357.13;5011986;28;45254;-77
2023/01/30 09:29:17;;;;;;;;;23.67;17.67;;;;;11.06;100.00;102350.97;5014375;28;45386;-77
2023/01/30 09:31:43;;;;;;;;;25.50;21.75;;;;;11.13;100.00;102367.72;5028156;28;47435;-77
2023/01/30 09:34:08;;;;;;;;;35.50;28.50;;;;;10.76;100.00;102359.50;5015974;28;45403;-77
2023/01/30 09:36:34;;;;;;;;;23.67;22.33;;;;;10.94;100.00;102360.03;5011048;28;45350;-77
2023/01/30 09:38:59;;;;;;;;;19.00;18.33;;;;;10.92;100.00;102370.16;5010868;28;45576;-77
2023/01/30 09:41:53;;;;;;;;;23.00;19.67;;;;;11.10;100.00;102357.06;5017441;28;46196;-77
2023/01/30 09:44:29;;;;;;;;;23.67;19.67;;;;;11.25;100.00;102356.78;5017987;28;45190;-78
2023/01/30 09:47:13;;;;;;;;;24.33;22.33;;;;;11.26;100.00;102353.09;5014194;28;45326;-77
2023/01/30 09:50:05;;;;;;;;;18.50;13.50;;;;;11.00;100.00;102362.31;5016890;28;45453;-78
2023/01/30 09:52:50;;;;;;;;;28.67;23.67;;;;;10.90;100.00;102362.09;5008206;28;45316;-78
2023/01/30 09:55:19;;;;;;;;;28.00;25.00;;;;;10.89;100.00;102354.03;5012268;28;45544;-77
2023/01/30 09:57:50;;;;;;;;;23.67;22.67;;;;;10.98;100.00;102371.56;5012914;28;45310;-77
2023/01/30 10:00:23;;;;;;;;;24.67;23.33;;;;;10.87;100.00;102370.50;5014057;28;45533;-76
2023/01/30 10:03:04;;;;;;;;;23.67;22.00;;;;;10.97;100.00;102372.53;5015304;28;46481;-76
2023/01/30 10:05:39;;;;;;;;;18.00;17.33;;;;;11.03;100.00;102380.28;5011870;28;45371;-77
2023/01/30 10:08:53;;;;;;;;;24.25;22.75;;;;;10.81;100.00;102384.50;5020979;28;45410;-77
2023/01/30 10:11:40;;;;;;;;;30.75;27.25;;;;;11.05;100.00;102384.59;5018248;28;45361;-76
2023/01/30 10:14:35;;;;;;;;;25.50;22.75;;;;;10.68;100.00;102380.06;5018434;28;46424;-76
2023/01/30 10:17:21;;;;;;;;;25.00;22.75;;;;;10.63;100.00;102382.25;5022544;28;45376;-78
2023/01/30 10:20:10;;;;;;;;;32.25;30.00;;;;;10.98;100.00;102396.91;5019089;28;45473;-76
2023/01/30 10:22:42;;;;;;;;;22.50;21.50;;;;;11.07;100.00;102396.25;5011822;28;45434;-77
2023/01/30 10:25:39;;;;;;;;;32.25;24.25;;;;;11.27;100.00;102402.94;5017270;28;47565;-77
2023/01/30 10:28:21;;;;;;;;;24.25;21.75;;;;;11.35;100.00;102386.91;5013498;28;45344;-77
2023/01/30 10:30:51;;;;;;;;;23.25;19.00;;;;;11.12;100.00;102390.44;5034321;28;45401;-77
2023/01/30 10:33:19;;;;;;;;;25.25;20.25;;;;;11.38;100.00;102394.00;5009926;28;45198;-77
2023/01/30 10:36:00;;;;;;;;;27.25;25.25;;;;;11.30;100.00;102364.63;5015088;28;45903;-77
2023/01/30 10:38:48;;;;;;;;;24.00;21.50;;;;;11.39;100.00;102358.50;5015250;28;45343;-77
2023/01/30 10:41:23;;;;;;;;;23.67;19.67;;;;;11.83;100.00;102359.75;5017219;28;45186;-76
2023/01/30 10:44:12;;;;;;;;;23.33;21.33;;;;;11.94;100.00;102357.94;5017842;28;45216;-75
2023/01/30 10:46:53;;;;;;;;;32.67;21.00;;;;;11.67;100.00;102365.47;5036781;28;47647;-75
2023/01/30 10:49:35;;;;;;;;;21.00;18.67;;;;;11.57;100.00;102335.34;5013232;28;45450;-78
2023/01/30 10:52:33;;;;;;;;;22.00;17.33;;;;;11.80;100.00;102354.53;5013311;28;45430;-78
2023/01/30 10:55:04;;;;;;;;;21.00;19.67;;;;;12.14;100.00;102353.66;5011430;28;45339;-77
2023/01/30 10:57:33;;;;;;;;;21.33;21.33;;;;;12.35;100.00;102348.38;5016960;28;46904;-76
2023/01/30 11:00:03;;;;;;;;;22.00;16.67;;;;;12.60;100.00;102350.03;5017230;28;45915;-77
2023/01/30 11:02:50;;;;;;;;;19.33;18.33;;;;;12.02;100.00;102349.16;5018456;28;45362;-76
2023/01/30 11:05:23;;;;;;;;;29.33;19.33;;;;;11.84;100.00;102353.28;5021869;28;45373;-77
2023/01/30 11:07:49;;;;;;;;;23.33;20.67;;;;;12.21;100.00;102338.56;5018924;28;45401;-77
2023/01/30 11:10:21;;;;;;;;;19.00;14.00;;;;;12.23;100.00;102352.94;5034633;28;45719;-76
2023/01/30 11:12:53;;;;;;;;;21.00;20.00;;;;;12.10;100.00;102360.34;5017042;28;45576;-78
2023/01/30 11:15:19;;;;;;;;;13.33;12.67;;;;;11.96;100.00;102355.09;5018732;28;44993;-77
2023/01/30 11:17:45;;;;;;;;;15.00;12.67;;;;;11.89;100.00;102356.56;5017559;28;45680;-76